Annada, MO (63330)

12:53 AM CDT on July 29, 2016 (GMT -0500)
Blue Ridge | | Change Station

Elev 748 ft 39.15 °N, 90.65 °W | Updated 13 minutes ago

Clear
Clear
72.3 °F
Feels Like 72.3 °F
N
0.0
Wind Variable Wind from North
Gusts 2.0 mph

Today
High -- | Low -- °F
--% Chance of Precip.
Yesterday
High -- | Low -- °F
Precip. -- in
Pressure 29.96 in
Visibility 10.0 miles
Clouds Clear
Dew Point 69 °F
Humidity 89%
Rainfall 0.00 in
Snow Depth Not available.
6:01 AM 8:17 PM
Waning Crescent, 25% visible
METAR KPPQ 290535Z AUTO 28003KT 10SM CLR 22/20 A2996 RMK AO2 T02150198
Pressure 29.96 in
Visibility 10.0 miles
Clouds Clear
Dew Point 69 °F
Humidity 89%
Rainfall 0.00 in
Snow Depth Not available.
6:01 AM 8:17 PM
Waning Crescent, 25% visible
METAR KPPQ 290535Z AUTO 28003KT 10SM CLR 22/20 A2996 RMK AO2 T02150198

10-Day Weather Forecast

Almanac

Astronomy

Jul. 29, 2016 Rise Set
Actual Time
Civil Twilight
Nautical Twilight
Astronomical Twilight
Moon
Length of Visible Light
Length of Day
Tomorrow will be .
, % of the Moon is Illuminated

Today's Extremes

State Highs State Lows

Community

WunderPhotos

Upload Photos

1,928,299 photos uploaded!

WunderBlog® & News

Nearby

Air Quality

  Air Quality AQ Index Pollutant
Not available.

Snow Depth

Station Depth Elevation

Earthquake Activity

City Distance Mag. Time & Date
Minimum magnitude displayed is 2.5.

Coastal Water Temperatures

Place Temperature

Stations

Nearby Weather Stations

Station Location Temp. Windchill Dew Point Humidity Wind Precip. Elev Updated Type
                   

Watches & Warnings

There are currently no watches in effect.